createdAt,value
2022-12-31T00:00:38.149Z,95.15
2022-12-31T00:03:25.040Z,95.21
2022-12-31T00:05:52.340Z,94.79
2022-12-31T00:08:19.657Z,94.95
2022-12-31T00:10:47.155Z,95.13
2022-12-31T00:13:14.773Z,96.30
2022-12-31T00:15:42.956Z,96.49
2022-12-31T00:18:10.813Z,96.54
2022-12-31T00:20:40.715Z,97.12
2022-12-31T00:23:09.658Z,97.68
2022-12-31T00:25:37.506Z,97.58
2022-12-31T00:28:05.376Z,97.27
2022-12-31T00:30:33.985Z,97.08
2022-12-31T00:33:01.092Z,96.74
2022-12-31T00:35:28.448Z,96.46
2022-12-31T00:37:56.113Z,96.12
2022-12-31T00:40:23.160Z,95.77
2022-12-31T00:42:50.426Z,95.51
2022-12-31T00:45:17.875Z,95.06
2022-12-31T00:47:44.917Z,94.71
2022-12-31T00:50:12.003Z,94.35
2022-12-31T00:52:39.528Z,94.53
2022-12-31T00:55:07.498Z,94.52
2022-12-31T00:57:34.671Z,94.41
2022-12-31T01:00:01.897Z,94.10
2022-12-31T01:02:29.660Z,93.58
2022-12-31T01:04:57.325Z,93.46
2022-12-31T01:07:24.790Z,93.36
2022-12-31T01:09:53.469Z,92.40
2022-12-31T01:12:20.871Z,91.93
2022-12-31T01:14:48.283Z,92.54
2022-12-31T01:17:16.975Z,92.00
2022-12-31T01:19:44.245Z,91.19
2022-12-31T01:22:11.799Z,91.21
2022-12-31T01:24:39.066Z,91.54
2022-12-31T01:27:06.453Z,91.73
2022-12-31T01:29:33.819Z,92.02
2022-12-31T01:32:00.922Z,92.03
2022-12-31T01:34:28.255Z,92.08
2022-12-31T01:36:55.924Z,92.16
2022-12-31T01:39:23.314Z,92.46
2022-12-31T01:41:50.526Z,92.25
2022-12-31T01:44:38.258Z,92.92
2022-12-31T01:47:10.936Z,94.65
2022-12-31T01:49:47.103Z,93.58
2022-12-31T01:52:36.471Z,94.26
2022-12-31T01:55:19.874Z,94.76
2022-12-31T01:57:51.411Z,94.03
2022-12-31T02:00:19.208Z,93.87
2022-12-31T02:02:46.545Z,93.46
2022-12-31T02:05:47.827Z,93.86
2022-12-31T02:08:16.310Z,93.79
2022-12-31T02:10:43.766Z,93.72
2022-12-31T02:13:11.130Z,92.75
2022-12-31T02:15:59.490Z,92.39
2022-12-31T02:18:35.737Z,91.88
2022-12-31T02:21:26.441Z,91.36
2022-12-31T02:24:18.469Z,91.09
2022-12-31T02:27:01.498Z,90.86
2022-12-31T02:29:34.599Z,91.16
2022-12-31T02:32:16.211Z,91.51
2022-12-31T02:34:54.783Z,91.46
2022-12-31T02:37:24.462Z,91.47
2022-12-31T02:39:52.036Z,91.34
2022-12-31T02:42:19.107Z,90.84
2022-12-31T02:44:46.671Z,90.67
2022-12-31T02:47:21.500Z,90.23
2022-12-31T02:49:54.596Z,89.58
2022-12-31T02:52:34.056Z,89.80
2022-12-31T02:55:13.378Z,89.67
2022-12-31T02:58:07.263Z,89.64
2022-12-31T03:01:08.293Z,89.59
2022-12-31T03:03:37.205Z,88.89
2022-12-31T03:06:07.674Z,88.12
2022-12-31T03:08:54.928Z,88.60
2022-12-31T03:11:41.230Z,88.87
2022-12-31T03:14:08.896Z,88.90
2022-12-31T03:16:41.369Z,89.44
2022-12-31T03:19:27.181Z,91.40
2022-12-31T03:22:13.154Z,90.66
2022-12-31T03:24:59.362Z,90.91
2022-12-31T03:27:26.698Z,91.41
2022-12-31T03:29:53.925Z,92.02
2022-12-31T03:32:21.005Z,97.38
2022-12-31T03:34:48.640Z,99.17
2022-12-31T03:37:15.604Z,99.31
2022-12-31T03:39:42.776Z,98.75
2022-12-31T03:42:10.318Z,97.17
2022-12-31T03:44:37.368Z,96.50
2022-12-31T03:47:05.027Z,96.42
2022-12-31T03:49:32.487Z,96.73
2022-12-31T03:51:59.841Z,97.12
2022-12-31T03:54:27.197Z,97.84
2022-12-31T03:56:59.941Z,99.44
2022-12-31T03:59:27.711Z,99.94
2022-12-31T04:01:55.238Z,99.36
2022-12-31T04:04:22.663Z,99.65
2022-12-31T04:06:50.116Z,100.00
2022-12-31T04:09:17.574Z,100.00
2022-12-31T04:11:44.945Z,100.00
2022-12-31T04:14:12.128Z,100.00
2022-12-31T04:16:39.574Z,100.00
2022-12-31T04:19:07.610Z,100.00
2022-12-31T04:21:35.317Z,100.00
2022-12-31T04:24:03.252Z,100.00
2022-12-31T04:26:30.701Z,100.00
2022-12-31T04:28:58.677Z,100.00
2022-12-31T04:31:26.812Z,100.00
2022-12-31T04:33:54.199Z,100.00
2022-12-31T04:36:21.455Z,100.00
2022-12-31T04:38:48.716Z,100.00
2022-12-31T04:41:22.303Z,100.00
2022-12-31T04:43:55.531Z,100.00
2022-12-31T04:46:28.407Z,100.00
2022-12-31T04:48:56.050Z,100.00
2022-12-31T04:51:24.340Z,100.00
2022-12-31T04:53:51.925Z,100.00
2022-12-31T04:56:19.341Z,100.00
2022-12-31T04:58:46.901Z,100.00
2022-12-31T05:01:18.151Z,100.00
2022-12-31T05:03:46.054Z,100.00
2022-12-31T05:06:19.719Z,100.00
2022-12-31T05:08:48.127Z,100.00
2022-12-31T05:11:15.705Z,100.00
2022-12-31T05:13:43.731Z,100.00
2022-12-31T05:16:11.548Z,100.00
2022-12-31T05:18:38.876Z,100.00
2022-12-31T05:21:06.496Z,100.00
2022-12-31T05:23:34.691Z,100.00
2022-12-31T05:26:02.964Z,100.00
2022-12-31T05:28:30.427Z,100.00
2022-12-31T05:30:58.304Z,100.00
2022-12-31T05:33:25.761Z,100.00
2022-12-31T05:35:53.066Z,100.00
2022-12-31T05:38:22.303Z,100.00
2022-12-31T05:40:49.564Z,100.00
2022-12-31T05:43:17.217Z,100.00
2022-12-31T05:45:44.550Z,100.00
2022-12-31T05:48:12.035Z,100.00
2022-12-31T05:50:39.384Z,100.00
2022-12-31T05:53:08.582Z,100.00
2022-12-31T05:55:35.653Z,100.00
2022-12-31T05:58:02.682Z,100.00
2022-12-31T06:00:30.139Z,100.00
2022-12-31T06:02:57.298Z,100.00
2022-12-31T06:05:26.497Z,100.00
2022-12-31T06:07:54.479Z,100.00
2022-12-31T06:10:21.917Z,100.00
2022-12-31T06:12:49.066Z,100.00
2022-12-31T06:15:16.625Z,100.00
2022-12-31T06:17:43.794Z,100.00
2022-12-31T06:20:13.436Z,100.00
2022-12-31T06:22:40.942Z,100.00
2022-12-31T06:25:08.609Z,100.00
2022-12-31T06:27:35.983Z,100.00
2022-12-31T06:30:04.041Z,100.00
2022-12-31T06:32:31.313Z,100.00
2022-12-31T06:34:58.747Z,100.00
2022-12-31T06:37:26.000Z,100.00
2022-12-31T06:39:53.247Z,100.00
2022-12-31T06:42:20.506Z,100.00
2022-12-31T06:44:48.057Z,100.00
2022-12-31T06:47:15.277Z,100.00
2022-12-31T06:49:42.360Z,100.00
2022-12-31T06:52:10.739Z,100.00
2022-12-31T06:54:38.307Z,100.00
2022-12-31T06:57:06.070Z,100.00
2022-12-31T06:59:33.933Z,100.00
2022-12-31T07:02:01.282Z,100.00
2022-12-31T07:04:40.624Z,99.66
2022-12-31T07:07:53.858Z,97.84
2022-12-31T07:10:43.742Z,94.66
2022-12-31T07:13:31.584Z,93.59
2022-12-31T07:16:20.300Z,93.04
2022-12-31T07:19:17.300Z,93.04
2022-12-31T07:21:45.470Z,92.53
2022-12-31T07:24:14.039Z,92.27
2022-12-31T07:27:08.128Z,92.06
2022-12-31T07:29:57.501Z,92.05
2022-12-31T07:33:02.943Z,91.31
2022-12-31T07:35:56.418Z,90.18
2022-12-31T07:38:54.387Z,89.90
2022-12-31T07:41:29.013Z,89.39
2022-12-31T07:44:25.959Z,88.89
2022-12-31T07:46:59.843Z,89.28
2022-12-31T07:49:29.612Z,89.57
2022-12-31T07:51:58.368Z,89.41
2022-12-31T07:54:25.837Z,89.09
2022-12-31T07:56:53.286Z,89.24
2022-12-31T07:59:36.081Z,88.07
2022-12-31T08:02:15.659Z,87.38
2022-12-31T08:05:02.054Z,86.13
2022-12-31T08:07:32.678Z,84.05
2022-12-31T08:10:12.562Z,83.90
2022-12-31T08:12:45.537Z,83.19
2022-12-31T08:15:18.492Z,80.40
2022-12-31T08:17:46.271Z,78.80
2022-12-31T08:20:16.743Z,78.31
2022-12-31T08:23:14.671Z,78.32
2022-12-31T08:26:01.071Z,78.18
2022-12-31T08:29:00.885Z,77.86
2022-12-31T08:31:35.363Z,77.11
2022-12-31T08:34:23.246Z,75.92
2022-12-31T08:37:10.978Z,74.98
2022-12-31T08:39:44.686Z,74.21
2022-12-31T08:42:29.756Z,73.29
2022-12-31T08:45:07.661Z,72.54
2022-12-31T08:48:02.709Z,73.41
2022-12-31T08:50:30.852Z,72.71
2022-12-31T08:52:58.821Z,71.64
2022-12-31T08:55:26.889Z,70.53
2022-12-31T08:58:22.198Z,70.26
2022-12-31T09:00:56.758Z,70.69
2022-12-31T09:04:02.637Z,70.35
2022-12-31T09:06:43.652Z,68.88
2022-12-31T09:09:39.783Z,67.76
2022-12-31T09:12:25.572Z,65.65
2022-12-31T09:15:10.747Z,66.42
2022-12-31T09:17:41.375Z,65.17
2022-12-31T09:20:17.853Z,64.80
2022-12-31T09:22:45.716Z,64.45
2022-12-31T09:25:17.293Z,65.36
2022-12-31T09:27:50.569Z,64.35
2022-12-31T09:30:18.753Z,63.76
2022-12-31T09:33:01.544Z,63.65
2022-12-31T09:35:49.077Z,63.34
2022-12-31T09:38:29.457Z,63.36
2022-12-31T09:41:34.284Z,63.99
2022-12-31T09:44:01.769Z,63.65
2022-12-31T09:47:06.936Z,64.02
2022-12-31T09:49:46.014Z,63.72
2022-12-31T09:52:56.384Z,63.87
2022-12-31T09:55:49.042Z,62.99
2022-12-31T09:58:37.892Z,62.14
2022-12-31T10:01:30.407Z,62.11
2022-12-31T10:04:03.530Z,61.70
2022-12-31T10:07:28.851Z,60.77
2022-12-31T10:10:05.599Z,60.20
2022-12-31T10:12:52.025Z,59.65
2022-12-31T10:15:19.683Z,59.07
2022-12-31T10:18:04.313Z,60.26
2022-12-31T10:20:46.248Z,58.36
2022-12-31T10:23:16.671Z,58.79
2022-12-31T10:25:53.480Z,57.87
2022-12-31T10:28:35.760Z,56.43
2022-12-31T10:31:44.806Z,55.41
2022-12-31T10:34:25.150Z,56.75
2022-12-31T10:37:04.078Z,54.46
2022-12-31T10:40:00.050Z,54.28
2022-12-31T10:42:44.561Z,52.81
2022-12-31T10:45:23.695Z,52.05
2022-12-31T10:48:16.558Z,52.47
2022-12-31T10:50:53.736Z,50.79
2022-12-31T10:53:39.421Z,49.22
2022-12-31T10:56:21.524Z,48.87
2022-12-31T10:58:54.302Z,47.27
2022-12-31T11:01:32.554Z,48.55
2022-12-31T11:04:02.738Z,47.88
2022-12-31T11:07:01.545Z,47.62
2022-12-31T11:10:00.237Z,46.32
2022-12-31T11:12:49.393Z,46.85
2022-12-31T11:15:50.610Z,47.22
2022-12-31T11:18:36.731Z,46.13
2022-12-31T11:21:28.496Z,46.56
2022-12-31T11:24:33.616Z,46.80
2022-12-31T11:27:18.075Z,46.51
2022-12-31T11:29:58.935Z,46.97
2022-12-31T11:32:28.749Z,44.63
2022-12-31T11:35:18.224Z,45.43
2022-12-31T11:38:03.403Z,44.70
2022-12-31T11:40:43.490Z,43.69
2022-12-31T11:43:17.801Z,43.96
2022-12-31T11:45:50.700Z,42.83
2022-12-31T11:48:37.017Z,43.28
2022-12-31T11:51:29.300Z,44.47
2022-12-31T11:54:34.235Z,44.03
2022-12-31T11:57:37.275Z,44.38
2022-12-31T12:00:18.355Z,43.62
2022-12-31T12:02:53.491Z,43.39
2022-12-31T12:05:24.590Z,42.99
2022-12-31T12:07:53.071Z,42.77
2022-12-31T12:10:37.178Z,41.27
2022-12-31T12:13:12.977Z,41.56
2022-12-31T12:15:44.815Z,41.17
2022-12-31T12:18:31.033Z,40.55
2022-12-31T12:21:12.524Z,40.88
2022-12-31T12:23:42.033Z,41.09
2022-12-31T12:26:32.629Z,41.15
2022-12-31T12:29:10.110Z,41.34
2022-12-31T12:31:38.662Z,41.14
2022-12-31T12:34:20.910Z,41.23
2022-12-31T12:36:48.476Z,40.88
2022-12-31T12:39:24.017Z,40.91
2022-12-31T12:42:07.451Z,40.46
2022-12-31T12:44:35.424Z,40.52
2022-12-31T12:47:06.502Z,40.57
2022-12-31T12:49:54.103Z,40.29
2022-12-31T12:52:32.312Z,40.75
2022-12-31T12:55:11.853Z,40.64
2022-12-31T12:57:52.617Z,40.88
2022-12-31T13:01:04.252Z,40.68
2022-12-31T13:03:31.979Z,40.84
2022-12-31T13:06:04.766Z,41.47
2022-12-31T13:09:18.709Z,41.09
2022-12-31T13:11:52.312Z,41.25
2022-12-31T13:14:39.126Z,41.09
2022-12-31T13:17:27.778Z,41.15
2022-12-31T13:20:13.875Z,41.21
2022-12-31T13:22:47.784Z,41.11
2022-12-31T13:25:29.889Z,41.65
2022-12-31T13:28:04.729Z,41.04
2022-12-31T13:30:51.956Z,40.97
2022-12-31T13:33:26.662Z,40.84
2022-12-31T13:35:56.179Z,40.42
2022-12-31T13:38:33.677Z,40.84
2022-12-31T13:41:08.811Z,41.32
2022-12-31T13:44:17.738Z,41.17
2022-12-31T13:46:51.037Z,42.52
2022-12-31T13:49:43.148Z,43.69
2022-12-31T13:52:35.410Z,44.23
2022-12-31T13:55:27.579Z,44.72
2022-12-31T13:57:57.765Z,45.73
2022-12-31T14:00:31.062Z,46.12
2022-12-31T14:02:58.147Z,47.39
2022-12-31T14:05:42.062Z,48.23
2022-12-31T14:08:10.850Z,49.00
2022-12-31T14:10:57.762Z,49.66
2022-12-31T14:13:34.762Z,50.27
2022-12-31T14:16:31.870Z,51.99
2022-12-31T14:19:20.142Z,54.25
2022-12-31T14:22:33.988Z,55.39
2022-12-31T14:25:10.050Z,57.27
2022-12-31T14:27:42.630Z,59.99
2022-12-31T14:30:16.144Z,61.48
2022-12-31T14:33:01.712Z,62.96
2022-12-31T14:35:48.942Z,64.99
2022-12-31T14:38:37.180Z,66.29
2022-12-31T14:41:07.919Z,67.84
2022-12-31T14:44:09.676Z,68.27
2022-12-31T14:47:05.606Z,69.46
2022-12-31T14:49:45.349Z,71.28
2022-12-31T14:52:16.196Z,71.35
2022-12-31T14:54:43.749Z,70.95
2022-12-31T14:57:25.028Z,71.88
2022-12-31T15:00:00.583Z,73.36
2022-12-31T15:02:34.099Z,73.64
2022-12-31T15:05:12.508Z,74.60
2022-12-31T15:07:48.043Z,73.46
2022-12-31T15:10:18.988Z,73.24
2022-12-31T15:12:56.068Z,73.61
2022-12-31T15:15:23.726Z,75.40
2022-12-31T15:18:03.372Z,77.05
2022-12-31T15:20:39.452Z,76.93
2022-12-31T15:23:25.039Z,77.83
2022-12-31T15:26:01.084Z,77.12
2022-12-31T15:28:39.853Z,77.69
2022-12-31T15:31:18.798Z,76.76
2022-12-31T15:34:06.097Z,77.18
2022-12-31T15:36:38.095Z,77.31
2022-12-31T15:39:11.859Z,78.44
2022-12-31T15:42:10.457Z,79.31
2022-12-31T15:44:31.004Z,79.28
2022-12-31T15:47:21.830Z,80.79
2022-12-31T15:49:50.494Z,80.57
2022-12-31T15:52:26.150Z,80.07
2022-12-31T15:54:57.604Z,80.21
2022-12-31T15:57:39.237Z,80.48
2022-12-31T16:00:24.466Z,80.58
2022-12-31T16:02:55.528Z,80.71
2022-12-31T16:05:27.379Z,80.68
2022-12-31T16:07:57.181Z,80.14
2022-12-31T16:10:30.666Z,80.79
2022-12-31T16:12:59.288Z,81.40
2022-12-31T16:15:31.147Z,81.49
2022-12-31T16:18:09.548Z,81.08
2022-12-31T16:20:48.187Z,82.87
2022-12-31T16:23:22.688Z,83.95
2022-12-31T16:25:53.036Z,83.88
2022-12-31T16:28:25.879Z,83.92
2022-12-31T16:31:16.808Z,85.14
2022-12-31T16:33:45.025Z,86.51
2022-12-31T16:36:30.868Z,86.45
2022-12-31T16:39:24.043Z,86.86
2022-12-31T16:41:53.224Z,87.25
2022-12-31T16:44:28.676Z,87.56
2022-12-31T16:46:59.404Z,87.57
2022-12-31T16:49:30.148Z,88.37
2022-12-31T16:52:30.360Z,88.13
2022-12-31T16:54:58.436Z,87.72
2022-12-31T16:57:29.988Z,86.99
2022-12-31T17:00:02.627Z,86.16
2022-12-31T17:03:29.956Z,84.79
2022-12-31T17:06:57.091Z,84.18
2022-12-31T17:14:21.564Z,82.24
2022-12-31T17:17:34.926Z,81.69
2022-12-31T17:21:09.379Z,81.14
2022-12-31T17:24:41.593Z,81.39
2022-12-31T17:27:29.357Z,80.45
2022-12-31T17:30:58.947Z,80.52
2022-12-31T17:34:29.933Z,83.93
2022-12-31T17:38:06.038Z,89.16
2022-12-31T17:41:41.727Z,93.12
2022-12-31T17:44:17.832Z,93.78
2022-12-31T17:46:45.396Z,94.71
2022-12-31T17:49:16.245Z,95.25
2022-12-31T17:51:47.567Z,94.23
2022-12-31T17:54:16.279Z,94.34
2022-12-31T17:56:44.653Z,94.32
2022-12-31T17:59:21.387Z,94.62
2022-12-31T18:01:49.097Z,94.03
2022-12-31T18:04:20.908Z,94.48
2022-12-31T18:06:47.965Z,94.82
2022-12-31T18:09:15.997Z,95.10
2022-12-31T18:11:44.980Z,95.37
2022-12-31T18:14:15.537Z,96.01
2022-12-31T18:16:43.015Z,96.29
2022-12-31T18:19:37.894Z,95.74
2022-12-31T18:22:02.146Z,95.60
2022-12-31T18:24:29.744Z,95.38
2022-12-31T18:26:56.846Z,95.55
2022-12-31T18:29:24.292Z,96.99
2022-12-31T18:31:51.898Z,96.88
2022-12-31T18:34:19.217Z,97.40
2022-12-31T18:36:47.501Z,96.51
2022-12-31T18:39:14.751Z,96.34
2022-12-31T18:41:49.167Z,95.54
2022-12-31T18:44:17.269Z,95.81
2022-12-31T18:46:44.332Z,94.81
2022-12-31T18:49:11.659Z,94.30
2022-12-31T18:51:39.113Z,93.97
2022-12-31T18:54:09.018Z,93.86
2022-12-31T18:56:39.513Z,93.94
2022-12-31T18:59:09.206Z,93.80
2022-12-31T19:01:40.872Z,93.71
2022-12-31T19:04:12.880Z,93.26
2022-12-31T19:06:42.289Z,93.05
2022-12-31T19:09:30.725Z,92.95
2022-12-31T19:11:57.680Z,93.14
2022-12-31T19:14:26.161Z,93.20
2022-12-31T19:16:54.181Z,93.30
2022-12-31T19:19:21.869Z,93.52
2022-12-31T19:21:49.103Z,94.13
2022-12-31T19:24:21.193Z,94.65
2022-12-31T19:26:49.479Z,94.48
2022-12-31T19:29:19.609Z,94.45
2022-12-31T19:31:47.593Z,94.68
2022-12-31T19:34:15.343Z,94.94
2022-12-31T19:36:44.255Z,95.11
2022-12-31T19:39:17.343Z,95.03
2022-12-31T19:41:51.472Z,94.85
2022-12-31T19:44:23.519Z,94.69
2022-12-31T19:46:51.167Z,94.44
2022-12-31T19:49:18.321Z,94.23
2022-12-31T19:51:45.371Z,93.97
2022-12-31T19:54:13.197Z,93.72
2022-12-31T19:56:41.034Z,93.43
2022-12-31T19:59:09.930Z,93.30
2022-12-31T20:01:37.787Z,93.00
2022-12-31T20:04:05.672Z,92.95
2022-12-31T20:06:32.991Z,92.71
2022-12-31T20:09:02.360Z,92.66
2022-12-31T20:11:29.405Z,92.70
2022-12-31T20:13:56.789Z,92.86
2022-12-31T20:16:31.024Z,93.09
2022-12-31T20:18:58.096Z,94.06
2022-12-31T20:21:28.587Z,94.58
2022-12-31T20:23:56.194Z,94.95
2022-12-31T20:26:24.797Z,95.40
2022-12-31T20:28:52.904Z,96.17
2022-12-31T20:31:23.968Z,96.26
2022-12-31T20:33:53.574Z,95.73
2022-12-31T20:36:21.900Z,95.23
2022-12-31T20:38:49.801Z,94.80
2022-12-31T20:41:20.234Z,94.35
2022-12-31T20:43:48.318Z,93.76
2022-12-31T20:46:19.071Z,93.27
2022-12-31T20:48:48.225Z,93.16
2022-12-31T20:51:16.744Z,93.12
2022-12-31T20:53:50.467Z,93.33
2022-12-31T20:56:18.496Z,93.54
2022-12-31T20:58:45.852Z,93.65
2022-12-31T21:01:16.852Z,93.43
2022-12-31T21:06:35.130Z,93.23
2022-12-31T21:09:05.352Z,93.24
2022-12-31T21:11:51.187Z,93.14
2022-12-31T21:14:19.340Z,93.00
2022-12-31T21:16:46.817Z,93.08
2022-12-31T21:19:14.122Z,93.50
2022-12-31T21:21:41.611Z,93.98
2022-12-31T21:24:09.266Z,94.05
2022-12-31T21:26:36.540Z,94.21
2022-12-31T21:29:03.991Z,94.43
2022-12-31T21:31:31.281Z,94.42
2022-12-31T21:33:58.970Z,94.50
2022-12-31T21:36:26.268Z,94.68
2022-12-31T21:38:53.311Z,94.95
2022-12-31T21:41:39.487Z,94.78
2022-12-31T21:44:07.161Z,94.53
2022-12-31T21:46:34.863Z,94.53
2022-12-31T21:49:02.501Z,94.62
2022-12-31T21:51:30.248Z,94.11
2022-12-31T21:53:57.849Z,94.28
2022-12-31T21:56:25.266Z,93.99
2022-12-31T21:59:16.513Z,93.59
2022-12-31T22:02:02.606Z,93.33
2022-12-31T22:07:17.709Z,92.79
2022-12-31T22:09:45.127Z,92.62
2022-12-31T22:12:12.431Z,92.35
2022-12-31T22:15:15.547Z,92.17
2022-12-31T22:17:27.911Z,92.04
2022-12-31T22:22:44.730Z,91.88
2022-12-31T22:25:12.779Z,92.05
2022-12-31T22:27:40.037Z,92.12
2022-12-31T22:30:08.426Z,92.55
2022-12-31T22:32:35.586Z,92.92
2022-12-31T22:35:03.338Z,93.23
2022-12-31T22:40:17.965Z,93.12
2022-12-31T22:42:45.370Z,93.04
2022-12-31T22:45:12.620Z,93.07
2022-12-31T22:47:40.161Z,92.92
2022-12-31T22:50:08.054Z,92.48
2022-12-31T22:52:35.049Z,92.42
2022-12-31T22:55:02.469Z,92.20
2022-12-31T22:57:29.815Z,92.56
2022-12-31T22:59:57.161Z,92.80
2022-12-31T23:02:24.410Z,92.89
2022-12-31T23:04:51.981Z,92.33
2022-12-31T23:07:19.530Z,92.27
2022-12-31T23:10:05.641Z,91.96
2022-12-31T23:12:33.222Z,91.52
2022-12-31T23:15:19.305Z,91.53
2022-12-31T23:18:05.295Z,91.97
2022-12-31T23:20:50.994Z,92.18
2022-12-31T23:23:18.321Z,92.40
2022-12-31T23:25:48.029Z,92.60
2022-12-31T23:28:18.355Z,92.68
2022-12-31T23:30:46.013Z,92.65
2022-12-31T23:33:17.195Z,93.00
2022-12-31T23:35:44.825Z,94.03
2022-12-31T23:38:13.234Z,94.36
2022-12-31T23:40:40.559Z,94.96
2022-12-31T23:43:08.634Z,94.63
2022-12-31T23:45:36.125Z,94.26
2022-12-31T23:48:04.331Z,93.98
2022-12-31T23:50:32.242Z,94.12
2022-12-31T23:52:59.691Z,93.55
2022-12-31T23:55:27.046Z,93.13
2022-12-31T23:57:54.946Z,92.70
